Time,TemperatureF,DewpointF,PressureIn,WindDirection,WindDirectionDegrees,WindSpeedMPH,WindSpeedGustMPH,Humidity,HourlyPrecipIn,Conditions,Clouds,dailyrainin,SolarRadiationWatts/m^2,SoftwareType,DateUTC
2013-10-04 00:10:00,52.0,51.0,-100.00,ENE,60,2.0,7.0,95,0.00,,,0.99,0.000000,,2013-10-04 05:10:00,
2013-10-04 00:50:00,52.0,51.0,-100.00,ENE,60,2.0,7.0,95,0.00,,,0.99,0.000000,,2013-10-04 05:50:00,
2013-10-04 00:59:00,52.0,51.0,-100.00,ENE,60,2.0,7.0,95,0.00,,,0.99,0.000000,,2013-10-04 05:59:00,
2013-10-04 01:08:00,52.0,51.0,-100.00,ENE,60,2.0,7.0,95,0.00,,,0.99,0.000000,,2013-10-04 06:08:00,
2013-10-04 01:10:00,51.0,50.0,-100.00,NNE,33,2.0,9.0,97,0.01,,,0.86,0.000000,,2013-10-04 06:10:00,
2013-10-04 01:49:00,51.0,50.0,-100.00,NNE,33,2.0,9.0,97,0.01,,,0.86,0.000000,,2013-10-04 06:49:00,
2013-10-04 01:58:00,51.0,50.0,-100.00,NNE,33,2.0,9.0,97,0.01,,,0.86,0.000000,,2013-10-04 06:58:00,
2013-10-04 02:07:00,51.0,50.0,-100.00,NNE,33,2.0,9.0,97,0.01,,,0.86,0.000000,,2013-10-04 07:07:00,
2013-10-04 02:10:00,52.0,51.0,-100.00,NNE,15,3.0,8.0,97,0.00,,,0.59,0.000000,,2013-10-04 07:10:00,
2013-10-04 02:49:00,52.0,51.0,-100.00,NNE,15,3.0,8.0,97,0.00,,,0.59,0.000000,,2013-10-04 07:49:00,
2013-10-04 02:58:00,52.0,51.0,-100.00,NNE,15,3.0,8.0,97,0.00,,,0.59,0.000000,,2013-10-04 07:58:00,
2013-10-04 03:07:00,52.0,51.0,-100.00,NNE,15,3.0,8.0,97,0.00,,,0.59,0.000000,,2013-10-04 08:07:00,
2013-10-04 03:10:00,52.0,51.0,-100.00,NNE,14,3.0,8.0,97,0.01,,,0.31,0.000000,,2013-10-04 08:10:00,
2013-10-04 03:48:00,52.0,51.0,-100.00,NNE,14,3.0,8.0,97,0.01,,,0.31,0.000000,,2013-10-04 08:48:00,
2013-10-04 03:58:00,52.0,51.0,-100.00,NNE,14,3.0,8.0,97,0.01,,,0.31,0.000000,,2013-10-04 08:58:00,
2013-10-04 04:06:00,52.0,51.0,-100.00,NNE,14,3.0,8.0,97,0.01,,,0.31,0.000000,,2013-10-04 09:06:00,
2013-10-04 04:10:00,51.0,50.0,-100.00,NE,45,2.0,10.0,96,0.01,,,0.17,0.000000,,2013-10-04 09:10:00,
2013-10-04 04:51:00,51.0,50.0,-100.00,NE,45,2.0,10.0,96,0.01,,,0.17,0.000000,,2013-10-04 09:51:00,
2013-10-04 05:00:00,51.0,50.0,-100.00,NE,45,2.0,10.0,96,0.01,,,0.17,0.000000,,2013-10-04 10:00:00,
2013-10-04 05:09:00,51.0,50.0,-100.00,NE,45,2.0,10.0,96,0.01,,,0.17,0.000000,,2013-10-04 10:09:00,
2013-10-04 05:10:00,51.0,50.0,-100.00,NE,38,2.0,8.0,96,0.00,,,0.09,0.000000,,2013-10-04 10:10:00,
2013-10-04 05:51:00,51.0,50.0,-100.00,NE,38,2.0,8.0,96,0.00,,,0.09,0.000000,,2013-10-04 10:51:00,
2013-10-04 06:00:00,51.0,50.0,-100.00,NE,38,2.0,8.0,96,0.00,,,0.09,0.000000,,2013-10-04 11:00:00,
2013-10-04 06:09:00,51.0,50.0,-100.00,NE,38,2.0,8.0,96,0.00,,,0.09,0.000000,,2013-10-04 11:09:00,
2013-10-04 06:10:00,52.0,51.0,-100.00,East,90,3.0,16.0,96,0.00,,,-99.99,0.000000,,2013-10-04 11:10:00,
2013-10-04 06:51:00,52.0,51.0,-100.00,East,90,3.0,16.0,96,0.00,,,-99.99,0.000000,,2013-10-04 11:51:00,
2013-10-04 07:00:00,52.0,51.0,-100.00,East,90,3.0,16.0,96,0.00,,,-99.99,0.000000,,2013-10-04 12:00:00,
2013-10-04 07:08:00,52.0,51.0,-100.00,East,90,3.0,16.0,96,0.00,,,-99.99,0.000000,,2013-10-04 12:08:00,
2013-10-04 07:10:00,52.0,51.0,-100.00,NE,43,3.0,11.0,95,0.00,,,0.09,0.000000,,2013-10-04 12:10:00,
2013-10-04 07:51:00,52.0,51.0,-100.00,NE,43,3.0,11.0,95,0.00,,,0.09,0.000000,,2013-10-04 12:51:00,
2013-10-04 08:00:00,52.0,51.0,-100.00,NE,43,3.0,11.0,95,0.00,,,0.09,0.000000,,2013-10-04 13:00:00,
2013-10-04 08:08:00,52.0,51.0,-100.00,NE,43,3.0,11.0,95,0.00,,,0.09,0.000000,,2013-10-04 13:08:00,
2013-10-04 08:10:00,52.0,50.0,-100.00,East,80,3.0,8.0,93,0.00,,,0.09,17.000000,,2013-10-04 13:10:00,
2013-10-04 08:50:00,52.0,50.0,-100.00,East,80,3.0,8.0,93,0.00,,,0.09,17.000000,,2013-10-04 13:50:00,
2013-10-04 08:59:00,52.0,50.0,-100.00,East,80,3.0,8.0,93,0.00,,,0.09,17.000000,,2013-10-04 13:59:00,
2013-10-04 09:08:00,52.0,50.0,-100.00,East,80,3.0,8.0,93,0.00,,,0.09,17.000000,,2013-10-04 14:08:00,
2013-10-04 09:10:00,53.0,50.0,-100.00,ENE,60,2.0,9.0,91,0.00,,,0.09,50.000000,,2013-10-04 14:10:00,
2013-10-04 09:51:00,53.0,50.0,-100.00,ENE,60,2.0,9.0,91,0.00,,,0.09,50.000000,,2013-10-04 14:51:00,
2013-10-04 10:00:00,53.0,50.0,-100.00,ENE,60,2.0,9.0,91,0.00,,,0.09,50.000000,,2013-10-04 15:00:00,
2013-10-04 10:09:00,53.0,50.0,-100.00,ENE,60,2.0,9.0,91,0.00,,,0.09,50.000000,,2013-10-04 15:09:00,
2013-10-04 10:10:00,54.0,50.0,-100.00,NE,40,2.0,9.0,87,0.00,,,0.09,100.000000,,2013-10-04 15:10:00,
2013-10-04 10:51:00,54.0,50.0,-100.00,NE,40,2.0,9.0,87,0.00,,,0.09,100.000000,,2013-10-04 15:51:00,
2013-10-04 11:00:00,54.0,50.0,-100.00,NE,40,2.0,9.0,87,0.00,,,0.09,100.000000,,2013-10-04 16:00:00,
2013-10-04 11:09:00,54.0,50.0,-100.00,NE,40,2.0,9.0,87,0.00,,,0.09,100.000000,,2013-10-04 16:09:00,
2013-10-04 11:10:00,55.0,50.0,-100.00,ENE,77,3.0,11.0,84,0.00,,,0.09,118.000000,,2013-10-04 16:10:00,
2013-10-04 11:51:00,55.0,50.0,-100.00,ENE,77,3.0,11.0,84,0.00,,,0.09,118.000000,,2013-10-04 16:51:00,
2013-10-04 12:00:00,55.0,50.0,-100.00,ENE,77,3.0,11.0,84,0.00,,,0.09,118.000000,,2013-10-04 17:00:00,
2013-10-04 12:09:00,55.0,50.0,-100.00,ENE,77,3.0,11.0,84,0.00,,,0.09,118.000000,,2013-10-04 17:09:00,
2013-10-04 12:10:00,55.0,50.0,-100.00,ENE,67,2.0,11.0,83,0.00,,,0.09,69.000000,,2013-10-04 17:10:00,
2013-10-04 13:02:00,55.0,50.0,-100.00,ENE,67,2.0,11.0,83,0.00,,,0.09,69.000000,,2013-10-04 18:02:00,
2013-10-04 13:10:00,57.0,52.0,-100.00,East,84,3.0,9.0,82,0.00,,,0.09,109.000000,,2013-10-04 18:10:00,
2013-10-04 13:53:00,57.0,52.0,-100.00,East,84,3.0,9.0,82,0.00,,,0.09,109.000000,,2013-10-04 18:53:00,
2013-10-04 14:02:00,57.0,52.0,-100.00,East,84,3.0,9.0,82,0.00,,,0.09,109.000000,,2013-10-04 19:02:00,
2013-10-04 14:10:00,57.0,52.0,-100.00,ENE,72,2.0,11.0,82,0.00,,,0.09,90.000000,,2013-10-04 19:10:00,
2013-10-04 14:43:00,57.0,52.0,-100.00,ENE,72,2.0,11.0,82,0.00,,,0.09,90.000000,,2013-10-04 19:43:00,
2013-10-04 14:52:00,57.0,52.0,-100.00,ENE,72,2.0,11.0,82,0.00,,,0.09,90.000000,,2013-10-04 19:52:00,
2013-10-04 15:02:00,57.0,52.0,-100.00,ENE,72,2.0,11.0,82,0.00,,,0.09,90.000000,,2013-10-04 20:02:00,
2013-10-04 15:10:00,58.0,52.0,-100.00,East,81,3.0,11.0,80,0.00,,,0.09,105.000000,,2013-10-04 20:10:00,
2013-10-04 15:43:00,58.0,52.0,-100.00,East,81,3.0,11.0,80,0.00,,,0.09,105.000000,,2013-10-04 20:43:00,
2013-10-04 15:53:00,58.0,52.0,-100.00,East,81,3.0,11.0,80,0.00,,,0.09,105.000000,,2013-10-04 20:53:00,
2013-10-04 16:01:00,58.0,52.0,-100.00,East,81,3.0,11.0,80,0.00,,,0.09,105.000000,,2013-10-04 21:01:00,
2013-10-04 16:10:00,58.0,52.0,-100.00,East,84,3.0,10.0,79,0.00,,,0.09,58.000000,,2013-10-04 21:10:00,
2013-10-04 16:43:00,58.0,52.0,-100.00,East,84,3.0,10.0,79,0.00,,,0.09,58.000000,,2013-10-04 21:43:00,
2013-10-04 16:54:00,58.0,52.0,-100.00,East,84,3.0,10.0,79,0.00,,,0.09,58.000000,,2013-10-04 21:54:00,
2013-10-04 17:03:00,58.0,52.0,-100.00,East,84,3.0,10.0,79,0.00,,,0.09,58.000000,,2013-10-04 22:03:00,
2013-10-04 17:10:00,55.0,54.0,-100.00,East,91,1.0,7.0,96,0.13,,,0.22,10.000000,,2013-10-04 22:10:00,
2013-10-04 17:43:00,55.0,54.0,-100.00,East,91,1.0,7.0,96,0.13,,,0.22,10.000000,,2013-10-04 22:43:00,
2013-10-04 17:52:00,55.0,54.0,-100.00,East,91,1.0,7.0,96,0.13,,,0.22,10.000000,,2013-10-04 22:52:00,
2013-10-04 18:03:00,55.0,54.0,-100.00,East,91,1.0,7.0,96,0.13,,,0.22,10.000000,,2013-10-04 23:03:00,
2013-10-04 18:10:00,53.0,52.0,-100.00,ESE,106,1.0,7.0,98,0.04,,,0.25,7.000000,,2013-10-04 23:10:00,
2013-10-04 18:42:00,53.0,52.0,-100.00,ESE,106,1.0,7.0,98,0.04,,,0.25,7.000000,,2013-10-04 23:42:00,
2013-10-04 18:53:00,53.0,52.0,-100.00,ESE,106,1.0,7.0,98,0.04,,,0.25,7.000000,,2013-10-04 23:53:00,
2013-10-04 19:02:00,53.0,52.0,-100.00,ESE,106,1.0,7.0,98,0.04,,,0.25,7.000000,,2013-10-05 00:02:00,
2013-10-04 19:10:00,53.0,52.0,-100.00,ENE,67,2.0,9.0,98,0.01,,,0.23,1.000000,,2013-10-05 00:10:00,
2013-10-04 19:42:00,53.0,52.0,-100.00,ENE,67,2.0,9.0,98,0.01,,,0.23,1.000000,,2013-10-05 00:42:00,
2013-10-04 19:53:00,53.0,52.0,-100.00,ENE,67,2.0,9.0,98,0.01,,,0.23,1.000000,,2013-10-05 00:53:00,
2013-10-04 20:02:00,53.0,52.0,-100.00,ENE,67,2.0,9.0,98,0.01,,,0.23,1.000000,,2013-10-05 01:02:00,
2013-10-04 20:10:00,53.0,52.0,-100.00,East,89,4.0,11.0,98,0.01,,,0.23,0.000000,,2013-10-05 01:10:00,
2013-10-04 20:43:00,53.0,52.0,-100.00,East,89,4.0,11.0,98,0.01,,,0.23,0.000000,,2013-10-05 01:43:00,
2013-10-04 20:52:00,53.0,52.0,-100.00,East,89,4.0,11.0,98,0.01,,,0.23,0.000000,,2013-10-05 01:52:00,
2013-10-04 21:02:00,53.0,52.0,-100.00,East,89,4.0,11.0,98,0.01,,,0.23,0.000000,,2013-10-05 02:02:00,
2013-10-04 21:10:00,52.0,51.0,-100.00,East,90,4.0,14.0,98,0.00,,,0.22,0.000000,,2013-10-05 02:10:00,
2013-10-04 21:42:00,52.0,51.0,-100.00,East,90,4.0,14.0,98,0.00,,,0.22,0.000000,,2013-10-05 02:42:00,
2013-10-04 21:52:00,52.0,51.0,-100.00,East,90,4.0,14.0,98,0.00,,,0.22,0.000000,,2013-10-05 02:52:00,
2013-10-04 22:02:00,52.0,51.0,-100.00,East,90,4.0,14.0,98,0.00,,,0.22,0.000000,,2013-10-05 03:02:00,
2013-10-04 22:10:00,52.0,51.0,-100.00,ENE,65,2.0,13.0,98,0.00,,,0.22,0.000000,,2013-10-05 03:10:00,
2013-10-04 22:45:00,52.0,51.0,-100.00,ENE,65,2.0,13.0,98,0.00,,,0.22,0.000000,,2013-10-05 03:45:00,
2013-10-04 22:55:00,52.0,51.0,-100.00,ENE,65,2.0,13.0,98,0.00,,,0.22,0.000000,,2013-10-05 03:55:00,
2013-10-04 23:04:00,52.0,51.0,-100.00,ENE,65,2.0,13.0,98,0.00,,,0.22,0.000000,,2013-10-05 04:04:00,
2013-10-04 23:10:00,52.0,51.0,-100.00,ESE,114,2.0,13.0,97,0.00,,,0.22,0.000000,,2013-10-05 04:10:00,
2013-10-04 23:44:00,52.0,51.0,-100.00,ESE,114,2.0,13.0,97,0.00,,,0.22,0.000000,,2013-10-05 04:44:00,
2013-10-04 23:53:00,52.0,51.0,-100.00,ESE,114,2.0,13.0,97,0.00,,,0.22,0.000000,,2013-10-05 04:53:00,